createdAt,value
2022-08-18T00:01:14.886Z,10.77
2022-08-18T00:06:18.064Z,10.10
2022-08-18T00:11:20.017Z,10.48
2022-08-18T00:16:21.487Z,10.10
2022-08-18T00:21:22.970Z,11.07
2022-08-18T00:26:24.392Z,11.40
2022-08-18T00:31:26.055Z,12.02
2022-08-18T00:36:28.055Z,11.13
2022-08-18T00:41:30.209Z,10.40
2022-08-18T00:46:33.667Z,10.60
2022-08-18T00:51:41.364Z,12.75
2022-08-18T00:56:47.684Z,10.13
2022-08-18T01:01:50.315Z,10.90
2022-08-18T01:07:00.695Z,9.65
2022-08-18T01:12:02.116Z,9.57
2022-08-18T01:17:42.702Z,11.23
2022-08-18T01:22:49.824Z,9.82
2022-08-18T01:27:52.395Z,9.52
2022-08-18T01:32:54.191Z,11.70
2022-08-18T01:37:55.656Z,10.82
2022-08-18T01:42:57.147Z,9.60
2022-08-18T01:47:59.774Z,9.75
2022-08-18T01:53:01.773Z,10.18
2022-08-18T01:58:04.089Z,9.63
2022-08-18T02:03:08.500Z,10.10
2022-08-18T02:08:12.430Z,9.57
2022-08-18T02:13:14.070Z,10.15
2022-08-18T02:18:37.237Z,11.50
2022-08-18T02:23:44.943Z,9.32
2022-08-18T02:28:54.372Z,9.68
2022-08-18T02:33:57.152Z,12.95
2022-08-18T02:38:59.845Z,11.43
2022-08-18T02:44:01.831Z,10.77
2022-08-18T02:49:03.748Z,10.70
2022-08-18T02:54:09.360Z,12.27
2022-08-18T02:59:14.706Z,11.13
2022-08-18T03:04:22.915Z,12.13
2022-08-18T03:09:27.397Z,11.20
2022-08-18T03:14:29.195Z,13.07
2022-08-18T03:19:31.160Z,12.07
2022-08-18T03:24:33.169Z,10.52
2022-08-18T03:29:35.352Z,10.77
2022-08-18T03:34:36.775Z,12.15
2022-08-18T03:39:38.416Z,11.05
2022-08-18T03:44:39.871Z,12.60
2022-08-18T03:49:41.810Z,11.23
2022-08-18T03:54:43.344Z,12.15
2022-08-18T03:59:44.733Z,9.88
2022-08-18T04:04:46.180Z,12.65
2022-08-18T04:09:47.892Z,11.10
2022-08-18T04:14:51.845Z,10.82
2022-08-18T04:19:53.894Z,11.23
2022-08-18T04:24:55.835Z,13.02
2022-08-18T04:29:59.544Z,12.15
2022-08-18T04:35:02.723Z,12.13
2022-08-18T04:40:05.861Z,10.73
2022-08-18T04:45:08.280Z,13.07
2022-08-18T04:50:10.544Z,9.63
2022-08-18T04:55:12.168Z,11.77
2022-08-18T05:00:14.074Z,11.57
2022-08-18T05:05:15.649Z,12.02
2022-08-18T05:10:20.130Z,13.20
2022-08-18T05:15:21.616Z,12.10
2022-08-18T05:20:23.330Z,14.77
2022-08-18T05:25:24.774Z,12.85
2022-08-18T05:30:26.247Z,10.60
2022-08-18T05:35:33.542Z,10.65
2022-08-18T05:40:35.948Z,12.52
2022-08-18T05:45:39.680Z,11.27
2022-08-18T05:50:41.297Z,13.63
2022-08-18T05:56:19.689Z,10.40
2022-08-18T06:01:41.501Z,10.45
2022-08-18T06:06:47.671Z,13.85
2022-08-18T06:11:49.946Z,9.75
2022-08-18T06:16:51.325Z,10.82
2022-08-18T06:22:00.110Z,12.25
2022-08-18T06:27:10.966Z,9.88
2022-08-18T06:32:15.361Z,11.07
2022-08-18T06:37:20.020Z,8.98
2022-08-18T06:42:26.252Z,11.70
2022-08-18T06:47:37.701Z,11.52
2022-08-18T06:52:50.781Z,7.40
2022-08-18T06:57:57.789Z,8.45
2022-08-18T07:03:08.250Z,8.52
2022-08-18T07:08:28.632Z,9.15
2022-08-18T07:13:30.393Z,8.40
2022-08-18T07:18:31.861Z,9.80
2022-08-18T07:23:38.720Z,8.52
2022-08-18T07:28:40.209Z,8.80
2022-08-18T07:33:43.368Z,8.55
2022-08-18T07:38:54.004Z,9.02
2022-08-18T07:44:01.546Z,10.20
2022-08-18T07:49:05.513Z,7.70
2022-08-18T07:54:31.041Z,9.98
2022-08-18T07:59:35.557Z,9.07
2022-08-18T08:04:41.915Z,8.63
2022-08-18T08:09:52.148Z,7.97
2022-08-18T08:15:27.006Z,9.13
2022-08-18T08:20:49.009Z,7.57
2022-08-18T08:26:09.987Z,9.75
2022-08-18T08:31:37.325Z,9.10
2022-08-18T08:36:40.911Z,12.43
2022-08-18T08:41:51.564Z,9.23
2022-08-18T08:46:53.138Z,8.00
2022-08-18T08:52:03.382Z,8.77
2022-08-18T08:57:05.108Z,8.25
2022-08-18T09:02:46.568Z,8.50
2022-08-18T09:08:05.693Z,9.70
2022-08-18T09:13:30.209Z,9.15
2022-08-18T09:18:43.591Z,7.15
2022-08-18T09:23:46.614Z,6.18
2022-08-18T09:28:57.556Z,5.65
2022-08-18T09:34:14.070Z,6.63
2022-08-18T09:39:54.486Z,7.32
2022-08-18T09:44:58.025Z,7.60
2022-08-18T09:50:26.580Z,7.05
2022-08-18T09:55:32.078Z,7.07
2022-08-18T10:00:33.853Z,9.48
2022-08-18T10:05:35.706Z,5.55
2022-08-18T10:11:02.401Z,4.72
2022-08-18T10:16:11.044Z,6.20
2022-08-18T10:21:35.644Z,7.10
2022-08-18T10:26:38.260Z,7.47
2022-08-18T10:31:55.473Z,9.73
2022-08-18T10:37:11.868Z,9.73
2022-08-18T10:42:31.513Z,9.05
2022-08-18T10:47:34.187Z,9.32
2022-08-18T10:53:23.963Z,8.55
2022-08-18T10:58:39.938Z,8.88
2022-08-18T11:03:51.579Z,8.27
2022-08-18T11:14:36.330Z,9.77
2022-08-18T11:19:41.975Z,7.78
2022-08-18T11:24:44.677Z,7.72
2022-08-18T11:29:47.854Z,8.02
2022-08-18T11:34:56.631Z,8.50
2022-08-18T11:39:59.371Z,7.07
2022-08-18T11:45:06.279Z,7.80
2022-08-18T11:50:11.673Z,6.93
2022-08-18T11:55:24.494Z,7.32
2022-08-18T12:00:36.671Z,7.38
2022-08-18T12:05:54.190Z,6.88
2022-08-18T12:11:02.587Z,8.15
2022-08-18T12:16:33.066Z,8.32
2022-08-18T12:21:37.947Z,5.95
2022-08-18T12:26:47.373Z,5.30
2022-08-18T12:31:52.862Z,7.65
2022-08-18T12:36:56.747Z,6.50
2022-08-18T12:41:59.522Z,8.73
2022-08-18T12:47:02.171Z,7.70
2022-08-18T12:52:06.271Z,5.47
2022-08-18T12:57:10.037Z,8.15
2022-08-18T13:02:12.371Z,8.57
2022-08-18T13:07:15.862Z,7.72
2022-08-18T13:12:21.053Z,7.10
2022-08-18T13:17:30.021Z,6.70
2022-08-18T13:22:36.089Z,8.48
2022-08-18T13:27:38.280Z,6.93
2022-08-18T13:32:59.431Z,8.45
2022-08-18T13:38:06.719Z,7.75
2022-08-18T13:43:17.562Z,6.85
2022-08-18T13:48:19.135Z,8.02
2022-08-18T13:53:21.827Z,8.70
2022-08-18T13:58:23.963Z,9.10
2022-08-18T14:03:42.830Z,6.35
2022-08-18T14:08:46.986Z,7.30
2022-08-18T14:13:48.854Z,5.88
2022-08-18T14:19:09.719Z,6.30
2022-08-18T14:24:31.101Z,9.27
2022-08-18T14:29:46.100Z,7.47
2022-08-18T14:34:50.094Z,6.82
2022-08-18T14:39:53.823Z,8.50
2022-08-18T14:45:03.513Z,7.47
2022-08-18T14:50:19.810Z,5.15
2022-08-18T14:55:21.313Z,6.80
2022-08-18T15:00:24.413Z,7.22
2022-08-18T15:05:25.979Z,8.15
2022-08-18T15:10:28.010Z,7.80
2022-08-18T15:15:51.017Z,8.13
2022-08-18T15:21:19.671Z,5.70
2022-08-18T15:26:34.614Z,7.00
2022-08-18T15:31:53.717Z,7.20
2022-08-18T15:36:58.498Z,6.40
2022-08-18T15:42:12.028Z,6.32
2022-08-18T15:47:15.067Z,6.75
2022-08-18T15:52:24.604Z,7.13
2022-08-18T15:57:35.304Z,6.43
2022-08-18T16:02:48.352Z,7.05
2022-08-18T16:07:51.018Z,7.97
2022-08-18T16:12:52.756Z,6.13
2022-08-18T16:17:55.204Z,6.07
2022-08-18T16:22:59.908Z,6.57
2022-08-18T16:28:01.562Z,6.50
2022-08-18T16:33:04.464Z,6.30
2022-08-18T16:38:07.560Z,8.20
2022-08-18T16:43:10.429Z,6.40
2022-08-18T16:48:16.655Z,6.80
2022-08-18T16:53:18.569Z,6.40
2022-08-18T16:58:38.719Z,5.95
2022-08-18T17:04:00.364Z,5.97
2022-08-18T17:09:09.952Z,5.60
2022-08-18T17:14:11.946Z,6.03
2022-08-18T17:19:14.087Z,7.38
2022-08-18T17:24:15.873Z,6.78
2022-08-18T17:29:21.314Z,8.95
2022-08-18T17:34:27.440Z,6.25
2022-08-18T17:39:32.814Z,6.20
2022-08-18T17:44:34.738Z,6.78
2022-08-18T17:50:26.860Z,8.32
2022-08-18T17:55:35.693Z,6.70
2022-08-18T18:00:37.174Z,7.35
2022-08-18T18:05:43.580Z,6.72
2022-08-18T18:16:19.893Z,6.38
2022-08-18T18:21:23.056Z,8.25
2022-08-18T18:26:46.128Z,7.07
2022-08-18T18:38:02.139Z,7.07
2022-08-18T18:43:22.216Z,7.63
2022-08-18T18:48:38.654Z,8.20
2022-08-18T18:53:54.807Z,6.28
2022-08-18T18:59:14.253Z,8.27
2022-08-18T19:04:22.644Z,6.20
2022-08-18T19:09:39.495Z,6.60
2022-08-18T19:14:44.566Z,7.50
2022-08-18T19:20:07.291Z,8.15
2022-08-18T19:25:09.031Z,7.75
2022-08-18T19:30:12.671Z,7.82
2022-08-18T19:35:19.844Z,6.22
2022-08-18T19:40:24.097Z,6.90
2022-08-18T19:45:57.904Z,7.95
2022-08-18T19:51:05.577Z,8.95
2022-08-18T19:56:25.994Z,9.15
2022-08-18T20:01:30.701Z,7.10
2022-08-18T20:06:44.601Z,9.73
2022-08-18T20:12:05.024Z,7.50
2022-08-18T20:17:09.450Z,8.82
2022-08-18T20:22:21.999Z,6.85
2022-08-18T20:27:52.473Z,9.05
2022-08-18T20:33:03.279Z,8.07
2022-08-18T20:38:24.103Z,9.63
2022-08-18T20:43:43.617Z,6.97
2022-08-18T20:54:04.890Z,7.35
2022-08-18T20:59:20.402Z,8.98
2022-08-18T21:04:34.930Z,7.75
2022-08-18T21:09:36.326Z,7.85
2022-08-18T21:14:37.813Z,7.93
2022-08-18T21:19:40.818Z,7.90
2022-08-18T21:24:43.870Z,8.60
2022-08-18T21:29:49.512Z,8.98
2022-08-18T21:34:51.515Z,7.65
2022-08-18T21:39:55.393Z,8.60
2022-08-18T21:45:00.653Z,7.82
2022-08-18T21:50:08.297Z,6.78
2022-08-18T21:55:25.086Z,8.10
2022-08-18T22:00:29.327Z,7.82
2022-08-18T22:05:58.451Z,7.68
2022-08-18T22:11:59.356Z,7.00
2022-08-18T22:16:47.737Z,6.95
2022-08-18T22:22:23.366Z,6.38
2022-08-18T22:27:26.459Z,7.55
2022-08-18T22:32:27.927Z,8.10
2022-08-18T22:37:32.536Z,7.93
2022-08-18T22:42:34.260Z,8.65
2022-08-18T22:47:42.899Z,7.97
2022-08-18T22:52:47.578Z,6.72
2022-08-18T22:57:49.140Z,7.43
2022-08-18T23:02:50.650Z,9.07
2022-08-18T23:07:52.119Z,9.02
2022-08-18T23:12:53.847Z,10.63
2022-08-18T23:17:55.393Z,7.55
2022-08-18T23:22:57.036Z,8.40
2022-08-18T23:28:00.075Z,8.15
2022-08-18T23:33:01.576Z,7.85
2022-08-18T23:38:03.530Z,8.98
2022-08-18T23:43:06.863Z,7.90
2022-08-18T23:48:09.979Z,7.28
2022-08-18T23:53:12.066Z,8.00
2022-08-18T23:58:13.545Z,10.30
